Time;durP1;ratioP1;P1;durP2;ratioP2;P2;SDS_P1;SDS_P2;PMS_P1;PMS_P2;Temp;Humidity;BMP_temperature;BMP_pressure;BME280_temperature;BME280_humidity;BME280_pressure;Samples;Min_cycle;Max_cycle;Signal;HPM_P1;HPM_P2
2022/04/08 00:00:49;;;;;;;4.28;3.10;;;;;;;12.54;68.58;98587.94;5093761;28;20027;-69
2022/04/08 00:03:14;;;;;;;5.43;3.05;;;;;;;12.47;68.66;98583.50;5096449;28;20038;-69
2022/04/08 00:05:40;;;;;;;5.70;2.78;;;;;;;12.47;68.88;98580.81;5087526;28;20085;-69
2022/04/08 00:08:05;;;;;;;5.65;3.28;;;;;;;12.45;68.51;98585.56;5093076;28;20026;-69
2022/04/08 00:10:31;;;;;;;6.30;3.72;;;;;;;12.47;68.21;98581.66;5093013;28;20031;-69
2022/04/08 00:12:57;;;;;;;8.65;3.83;;;;;;;12.54;68.23;98579.06;5092683;28;20032;-69
2022/04/08 00:15:23;;;;;;;5.50;4.00;;;;;;;12.54;68.57;98581.75;5090897;28;20056;-70
2022/04/08 00:17:48;;;;;;;6.43;3.70;;;;;;;12.44;68.38;98557.00;5096609;28;20391;-70
2022/04/08 00:20:13;;;;;;;6.47;4.22;;;;;;;12.45;68.65;98556.81;5093976;28;20044;-70
2022/04/08 00:22:41;;;;;;;9.23;4.45;;;;;;;12.55;68.46;98583.41;5096015;28;20035;-70
2022/04/08 00:25:10;;;;;;;7.82;4.20;;;;;;;12.53;68.65;98580.06;5094335;28;20035;-69
2022/04/08 00:27:36;;;;;;;6.25;4.05;;;;;;;12.42;68.40;98557.22;5085233;28;20126;-69
2022/04/08 00:30:05;;;;;;;7.00;3.97;;;;;;;12.57;68.36;98581.34;5100182;28;20577;-69
2022/04/08 00:32:32;;;;;;;5.65;3.72;;;;;;;12.51;68.14;98582.94;5088923;28;20028;-70
2022/04/08 00:34:58;;;;;;;6.90;3.35;;;;;;;12.44;68.29;98575.81;5099936;28;20045;-70
2022/04/08 00:37:23;;;;;;;6.78;4.40;;;;;;;12.49;68.67;98589.53;5097025;28;20523;-69
2022/04/08 00:39:50;;;;;;;6.07;4.32;;;;;;;12.53;68.60;98597.03;5088676;28;20020;-69
2022/04/08 00:42:15;;;;;;;6.65;3.78;;;;;;;12.47;68.54;98594.25;5088662;28;20085;-70
2022/04/08 00:44:41;;;;;;;7.22;4.70;;;;;;;12.45;67.97;98588.25;5100283;28;20059;-69
2022/04/08 00:47:06;;;;;;;7.30;3.92;;;;;;;12.46;68.04;98590.75;5097271;28;20475;-70
2022/04/08 00:49:35;;;;;;;11.00;4.93;;;;;;;12.44;68.15;98590.09;5097035;28;20036;-69
2022/04/08 00:52:01;;;;;;;6.65;4.80;;;;;;;12.49;67.86;98598.44;5091006;28;20032;-69
2022/04/08 00:54:30;;;;;;;7.00;5.03;;;;;;;12.46;67.89;98596.13;5097780;28;20031;-69
2022/04/08 00:56:56;;;;;;;5.53;4.72;;;;;;;12.49;68.10;98597.59;5086323;28;20034;-69
2022/04/08 00:59:23;;;;;;;6.95;5.25;;;;;;;12.43;67.93;98588.44;5097348;28;20024;-69
2022/04/08 01:01:48;;;;;;;7.35;5.05;;;;;;;12.43;68.18;98590.28;5087012;28;20483;-69
2022/04/08 01:04:13;;;;;;;9.63;5.20;;;;;;;12.47;68.04;98613.09;5094786;28;20036;-69
2022/04/08 01:06:42;;;;;;;6.65;5.35;;;;;;;12.47;68.44;98613.94;5096958;28;20755;-69
2022/04/08 01:09:07;;;;;;;12.25;5.90;;;;;;;12.49;68.59;98619.97;5099535;28;20493;-69
2022/04/08 01:11:33;;;;;;;9.07;5.35;;;;;;;12.46;68.71;98619.50;5087759;28;20031;-70
2022/04/08 01:14:12;;;;;;;6.53;5.50;;;;;;;12.41;68.15;98601.22;5097668;28;20027;-69
2022/04/08 01:16:38;;;;;;;7.97;5.75;;;;;;;12.43;68.32;98611.78;5091040;28;20016;-70
2022/04/08 01:19:04;;;;;;;7.75;5.93;;;;;;;12.44;68.11;98608.94;5085133;28;20020;-69
2022/04/08 01:21:31;;;;;;;9.88;6.97;;;;;;;12.42;68.15;98599.38;5092731;28;20502;-69
2022/04/08 01:23:58;;;;;;;8.73;6.18;;;;;;;12.46;68.31;98592.59;5098502;28;20024;-69
2022/04/08 01:26:24;;;;;;;11.45;6.45;;;;;;;12.42;67.95;98610.13;5096214;28;20020;-77
2022/04/08 01:28:51;;;;;;;8.35;6.55;;;;;;;12.34;68.70;98603.00;5092293;28;20029;-78
2022/04/08 01:31:16;;;;;;;10.07;7.55;;;;;;;12.41;68.58;98606.59;5096231;28;20043;-78
2022/04/08 01:33:42;;;;;;;9.25;7.45;;;;;;;12.36;68.74;98597.44;5098099;28;20028;-78
2022/04/08 01:36:07;;;;;;;11.90;7.93;;;;;;;12.38;67.99;98606.16;5097446;28;20075;-78
2022/04/08 01:38:33;;;;;;;10.02;7.88;;;;;;;12.36;68.59;98621.63;5089359;28;20077;-77
2022/04/08 01:40:59;;;;;;;13.88;7.50;;;;;;;12.38;68.35;98646.50;5093376;28;20036;-78
2022/04/08 01:43:24;;;;;;;10.23;7.57;;;;;;;12.35;68.67;98641.50;5095977;28;20106;-77
2022/04/08 01:45:50;;;;;;;12.70;8.48;;;;;;;12.33;68.99;98630.91;5095805;28;20024;-77
2022/04/08 01:48:16;;;;;;;10.85;8.85;;;;;;;12.32;68.59;98623.03;5093169;28;20032;-78
2022/04/08 01:50:41;;;;;;;13.57;8.93;;;;;;;12.25;68.82;98616.75;5096032;28;20037;-77
2022/04/08 01:53:06;;;;;;;10.65;8.13;;;;;;;12.31;69.08;98621.34;5098469;28;20144;-78
2022/04/08 01:55:32;;;;;;;13.77;8.88;;;;;;;12.29;69.06;98631.47;5093275;28;20111;-78
2022/04/08 01:57:58;;;;;;;11.27;8.65;;;;;;;12.14;69.41;98612.66;5096490;28;20059;-78
2022/04/08 02:00:23;;;;;;;11.55;8.23;;;;;;;12.25;69.33;98624.81;5094622;28;20499;-78
2022/04/08 02:02:49;;;;;;;11.90;9.43;;;;;;;12.25;69.47;98624.81;5095390;28;20125;-78
2022/04/08 02:05:14;;;;;;;13.02;9.18;;;;;;;12.22;69.54;98628.69;5093571;28;20028;-77
2022/04/08 02:07:40;;;;;;;10.95;9.02;;;;;;;12.19;69.76;98633.63;5094273;28;20151;-78
2022/04/08 02:10:06;;;;;;;16.23;10.70;;;;;;;12.15;69.83;98643.06;5082876;28;20114;-78
2022/04/08 02:12:31;;;;;;;18.23;11.55;;;;;;;12.16;69.79;98658.97;5095270;28;20480;-77
2022/04/08 02:14:57;;;;;;;13.88;10.70;;;;;;;12.07;70.22;98643.16;5096775;28;20020;-77
2022/04/08 02:17:25;;;;;;;12.50;10.85;;;;;;;12.14;70.28;98654.81;5094941;28;20088;-77
2022/04/08 02:19:52;;;;;;;14.35;10.82;;;;;;;12.12;70.10;98652.31;5095213;28;20039;-78
2022/04/08 02:22:18;;;;;;;15.77;11.13;;;;;;;12.03;70.74;98645.34;5095091;28;20031;-77
2022/04/08 02:24:46;;;;;;;13.82;11.05;;;;;;;12.09;70.78;98658.06;5095364;28;20032;-78
2022/04/08 02:27:15;;;;;;;14.50;11.10;;;;;;;11.98;70.31;98657.69;5086040;28;20062;-78
2022/04/08 02:29:40;;;;;;;15.05;11.75;;;;;;;12.02;70.93;98667.06;5083277;28;20369;-77
2022/04/08 02:32:06;;;;;;;15.63;11.65;;;;;;;12.00;70.93;98652.97;5082654;28;20027;-77
2022/04/08 02:34:36;;;;;;;15.70;11.77;;;;;;;12.05;71.01;98667.50;5097734;28;20047;-78
2022/04/08 02:37:03;;;;;;;16.67;12.55;;;;;;;11.99;71.36;98672.81;5101007;28;20579;-77
2022/04/08 02:39:28;;;;;;;14.35;11.63;;;;;;;11.97;71.14;98681.03;5095202;28;20089;-77
2022/04/08 02:41:53;;;;;;;17.70;12.45;;;;;;;11.94;71.78;98680.56;5095663;28;20086;-77
2022/04/08 02:44:19;;;;;;;15.02;12.65;;;;;;;11.89;71.98;98688.31;5095869;28;20028;-77
2022/04/08 02:46:44;;;;;;;14.82;12.65;;;;;;;11.89;71.64;98707.13;5095512;28;20039;-77
2022/04/08 02:49:10;;;;;;;18.50;12.02;;;;;;;11.90;71.79;98722.25;5099111;28;20476;-77
2022/04/08 02:51:35;;;;;;;16.58;13.48;;;;;;;11.76;71.66;98714.97;5086345;28;20412;-77
2022/04/08 02:54:01;;;;;;;18.02;12.80;;;;;;;11.95;71.89;98726.06;5096359;28;20042;-69
2022/04/08 02:56:26;;;;;;;19.00;12.82;;;;;;;11.87;71.62;98736.88;5098456;28;20028;-70
2022/04/08 02:58:52;;;;;;;16.60;13.23;;;;;;;11.85;72.27;98741.59;5094899;28;20027;-69
2022/04/08 03:01:18;;;;;;;16.50;12.90;;;;;;;11.78;72.54;98737.13;5099227;28;20515;-69
2022/04/08 03:03:43;;;;;;;18.80;12.45;;;;;;;11.77;72.34;98730.91;5095619;28;20035;-70
2022/04/08 03:06:09;;;;;;;19.30;13.75;;;;;;;11.61;73.13;98714.06;5099341;28;20862;-69
2022/04/08 03:08:34;;;;;;;19.02;14.73;;;;;;;11.63;73.14;98736.22;5099628;28;21094;-69
2022/04/08 03:11:00;;;;;;;21.17;14.55;;;;;;;11.75;73.39;98751.75;5084995;28;20063;-69
2022/04/08 03:13:25;;;;;;;20.75;14.93;;;;;;;11.63;73.16;98747.81;5093884;28;20051;-69
2022/04/08 03:15:52;;;;;;;20.05;14.40;;;;;;;11.65;73.93;98750.31;5086754;28;20020;-78
2022/04/08 03:18:18;;;;;;;19.83;14.23;;;;;;;11.57;74.02;98746.66;5094799;28;20077;-69
2022/04/08 03:20:44;;;;;;;16.60;13.77;;;;;;;11.48;74.36;98742.34;5090319;28;20027;-69
2022/04/08 03:23:09;;;;;;;24.92;15.60;;;;;;;11.41;74.49;98744.09;5094305;28;20023;-70
2022/04/08 03:25:35;;;;;;;18.58;14.48;;;;;;;11.43;74.96;98751.97;5095117;28;20229;-70
2022/04/08 03:28:01;;;;;;;23.13;16.10;;;;;;;11.40;75.25;98768.41;5096777;28;20108;-69
2022/04/08 03:30:27;;;;;;;22.38;15.52;;;;;;;11.44;75.34;98775.94;5094175;28;20077;-69
2022/04/08 03:32:55;;;;;;;19.48;15.40;;;;;;;11.37;75.59;98777.66;5093220;28;20089;-69
2022/04/08 03:35:21;;;;;;;21.83;14.73;;;;;;;11.41;75.73;98803.13;5092798;28;20046;-69
2022/04/08 03:37:47;;;;;;;24.98;16.33;;;;;;;11.45;75.49;98822.41;5095441;28;20016;-69
2022/04/08 03:40:12;;;;;;;19.63;15.55;;;;;;;11.40;75.65;98816.72;5096595;28;20489;-68
2022/04/08 03:42:38;;;;;;;23.05;15.52;;;;;;;11.48;75.58;98824.72;5094315;28;20380;-70
2022/04/08 03:45:04;;;;;;;24.90;16.05;;;;;;;11.46;75.69;98832.13;5087901;28;20031;-70
2022/04/08 03:47:30;;;;;;;24.65;16.65;;;;;;;11.33;75.58;98818.44;5095797;28;20032;-69
2022/04/08 03:49:56;;;;;;;21.90;16.10;;;;;;;11.29;76.46;98842.09;5095700;28;20032;-69
2022/04/08 03:52:21;;;;;;;21.73;15.95;;;;;;;11.16;76.96;98846.38;5094616;28;20120;-69
2022/04/08 03:54:46;;;;;;;23.92;16.33;;;;;;;11.19;76.79;98836.13;5085904;28;20032;-69
2022/04/08 03:57:12;;;;;;;25.15;17.52;;;;;;;11.25;77.51;98853.38;5093460;28;20024;-69
2022/04/08 03:59:37;;;;;;;23.55;16.98;;;;;;;11.22;77.61;98841.13;5090077;28;20084;-70
2022/04/08 04:02:05;;;;;;;22.33;16.42;;;;;;;11.21;77.93;98847.53;5086708;28;20039;-69
2022/04/08 04:04:31;;;;;;;22.15;17.38;;;;;;;11.19;78.40;98846.84;5097712;28;20433;-69
2022/04/08 04:06:57;;;;;;;27.23;18.42;;;;;;;11.17;77.75;98851.56;5098168;28;20106;-69
2022/04/08 04:09:22;;;;;;;24.13;16.90;;;;;;;11.15;78.75;98864.31;5092532;28;20107;-69
2022/04/08 04:11:48;;;;;;;21.15;16.55;;;;;;;11.07;79.42;98864.34;5097851;28;20020;-69
2022/04/08 04:14:13;;;;;;;26.55;17.23;;;;;;;11.04;79.71;98885.31;5098036;28;20430;-69
2022/04/08 04:16:41;;;;;;;22.27;17.55;;;;;;;10.99;79.78;98885.84;5096530;28;20484;-69
2022/04/08 04:19:07;;;;;;;30.05;17.95;;;;;;;11.03;79.76;98895.19;5099634;28;20072;-69
2022/04/08 04:21:35;;;;;;;24.10;17.13;;;;;;;10.99;80.63;98904.59;5094916;28;20480;-70
2022/04/08 04:24:00;;;;;;;25.42;18.33;;;;;;;11.02;80.86;98879.28;5100968;28;20027;-70
2022/04/08 04:26:26;;;;;;;26.15;17.30;;;;;;;11.07;80.55;98896.53;5094755;28;20032;-69
2022/04/08 04:28:51;;;;;;;26.65;17.08;;;;;;;10.99;80.57;98901.09;5097837;28;20030;-70
2022/04/08 04:31:17;;;;;;;25.38;17.77;;;;;;;10.94;81.64;98903.47;5097912;28;20110;-70
2022/04/08 04:33:42;;;;;;;27.33;19.98;;;;;;;11.02;81.81;98925.72;5097666;28;20372;-70
2022/04/08 04:36:07;;;;;;;25.00;17.73;;;;;;;10.85;81.34;98905.31;5084365;28;20052;-70
2022/04/08 04:38:33;;;;;;;25.73;18.33;;;;;;;10.97;81.34;98916.53;5097674;28;20111;-70
2022/04/08 04:40:58;;;;;;;25.38;19.90;;;;;;;11.11;82.00;98927.38;5100280;28;20016;-71
2022/04/08 04:43:24;;;;;;;26.35;20.23;;;;;;;11.18;81.41;98924.84;5097410;28;20027;-71
2022/04/08 04:45:49;;;;;;;30.75;21.02;;;;;;;11.11;81.54;98913.97;5098063;28;20105;-70
2022/04/08 04:48:16;;;;;;;25.52;19.33;;;;;;;11.10;82.38;98939.13;5099559;28;20024;-71
2022/04/08 04:50:42;;;;;;;28.80;22.02;;;;;;;11.19;81.62;98940.78;5094502;28;20028;-71
2022/04/08 04:53:07;;;;;;;30.15;22.38;;;;;;;11.25;81.41;98936.56;5099547;28;20023;-69
2022/04/08 04:55:33;;;;;;;37.42;23.73;;;;;;;11.26;81.50;98955.16;5097043;28;20032;-70
2022/04/08 04:57:58;;;;;;;31.80;22.92;;;;;;;11.42;80.26;98959.66;5098686;28;20062;-70
2022/04/08 05:00:24;;;;;;;30.60;22.35;;;;;;;11.49;80.09;98977.56;5097578;28;20464;-70
2022/04/08 05:02:50;;;;;;;33.75;24.17;;;;;;;11.42;80.69;98971.22;5088877;28;20535;-70
2022/04/08 05:05:16;;;;;;;35.03;23.13;;;;;;;11.49;79.47;98968.69;5096520;28;20031;-69
2022/04/08 05:07:41;;;;;;;31.17;22.60;;;;;;;11.58;79.30;98995.34;5097225;28;20039;-69
2022/04/08 05:10:07;;;;;;;34.58;24.13;;;;;;;11.59;78.99;98985.44;5092638;28;20047;-70
2022/04/08 05:12:36;;;;;;;33.33;24.35;;;;;;;11.65;78.65;98992.84;5096146;28;20083;-70
2022/04/08 05:15:07;;;;;;;35.30;23.33;;;;;;;11.67;79.41;98996.16;5083956;28;20024;-70
2022/04/08 05:17:36;;;;;;;35.10;24.13;;;;;;;11.92;77.63;99015.72;5080914;28;20036;-70
2022/04/08 05:20:03;;;;;;;32.63;22.65;;;;;;;12.01;77.64;99003.91;5096442;28;20026;-69
2022/04/08 05:22:28;;;;;;;28.95;21.63;;;;;;;12.02;77.75;99011.81;5091263;28;20365;-69
2022/04/08 05:24:54;;;;;;;34.17;22.88;;;;;;;12.11;76.85;98985.72;5092456;28;20061;-69
2022/04/08 05:27:19;;;;;;;27.20;20.45;;;;;;;12.10;76.12;98974.16;5090339;28;20024;-69
2022/04/08 05:29:45;;;;;;;24.23;19.52;;;;;;;12.28;75.77;99009.66;5097311;28;20045;-70
2022/04/08 05:32:10;;;;;;;32.03;20.50;;;;;;;12.39;74.66;98994.97;5096190;28;20062;-69
2022/04/08 05:34:36;;;;;;;25.23;19.30;;;;;;;12.52;74.30;99011.34;5095914;28;20035;-69
2022/04/08 05:37:01;;;;;;;28.23;19.60;;;;;;;12.54;74.75;99006.63;5087771;28;20051;-69
2022/04/08 05:39:26;;;;;;;29.08;19.25;;;;;;;12.65;73.91;99016.97;5096133;28;20586;-69
2022/04/08 05:41:52;;;;;;;26.60;19.08;;;;;;;12.77;73.41;99010.97;5098619;28;20551;-69
2022/04/08 05:44:17;;;;;;;24.95;18.63;;;;;;;12.98;72.30;99023.75;5099223;28;20020;-69
2022/04/08 05:46:44;;;;;;;29.80;17.67;;;;;;;13.05;71.49;99024.72;5082071;28;20027;-69
2022/04/08 05:49:09;;;;;;;24.05;16.70;;;;;;;13.17;71.47;99028.66;5099216;28;20391;-77
2022/04/08 05:51:34;;;;;;;23.65;17.23;;;;;;;13.30;71.09;99031.56;5098909;28;20035;-78
2022/04/08 05:54:00;;;;;;;23.83;16.30;;;;;;;13.25;71.12;99040.19;5084204;28;20043;-77
2022/04/08 05:56:25;;;;;;;18.88;14.05;;;;;;;13.55;67.77;99043.78;5095690;28;20024;-78
2022/04/08 05:58:51;;;;;;;18.77;14.65;;;;;;;13.55;67.73;99046.47;5085176;28;20020;-77
2022/04/08 06:01:16;;;;;;;18.88;12.90;;;;;;;13.53;67.23;99043.13;5094429;28;20031;-77
2022/04/08 06:03:42;;;;;;;16.65;12.75;;;;;;;13.73;66.34;99055.88;5095664;28;20154;-78
2022/04/08 06:06:07;;;;;;;20.73;13.00;;;;;;;13.69;66.15;99051.88;5097948;28;20016;-77
2022/04/08 06:08:33;;;;;;;20.38;14.18;;;;;;;13.96;65.10;99065.72;5095522;28;20039;-77
2022/04/08 06:10:58;;;;;;;18.40;12.23;;;;;;;14.13;63.82;99064.50;5097975;28;20034;-77
2022/04/08 06:13:26;;;;;;;16.52;13.10;;;;;;;14.18;63.63;99062.09;5095372;28;20092;-77
2022/04/08 06:15:52;;;;;;;20.90;12.95;;;;;;;14.34;63.25;99061.88;5095271;28;20614;-78
2022/04/08 06:18:24;;;;;;;16.02;12.32;;;;;;;14.52;62.51;99062.31;5095046;28;20034;-77
2022/04/08 06:20:50;;;;;;;18.45;11.30;;;;;;;14.51;61.99;99072.25;5092643;28;20023;-77
2022/04/08 06:23:17;;;;;;;14.90;9.45;;;;;;;14.81;59.56;99071.16;5095030;28;20035;-77
2022/04/08 06:25:42;;;;;;;14.73;8.50;;;;;;;14.97;57.75;99076.31;5095064;28;20374;-77
2022/04/08 06:28:08;;;;;;;9.90;7.60;;;;;;;15.00;56.41;99062.41;5096905;28;20903;-77
2022/04/08 06:30:35;;;;;;;10.48;7.05;;;;;;;15.10;56.55;99078.28;5084943;28;20035;-77
2022/04/08 06:33:02;;;;;;;12.38;6.60;;;;;;;15.26;55.01;99070.75;5092740;28;20031;-70
2022/04/08 06:35:27;;;;;;;11.27;6.40;;;;;;;15.46;53.77;99074.50;5094783;28;20038;-70
2022/04/08 06:38:03;;;;;;;9.02;6.45;;;;;;;15.62;52.91;99087.72;5097746;28;20032;-70
2022/04/08 06:40:31;;;;;;;16.27;5.88;;;;;;;15.89;50.26;99086.88;5084408;28;20059;-69
2022/04/08 06:42:59;;;;;;;12.25;4.82;;;;;;;15.94;49.70;99072.75;5083424;28;20024;-70
2022/04/08 06:45:26;;;;;;;8.45;3.45;;;;;;;16.08;49.51;99095.28;5096942;28;20031;-69
2022/04/08 06:47:52;;;;;;;8.07;3.70;;;;;;;16.28;48.78;99101.66;5094701;28;20476;-69
2022/04/08 06:50:18;;;;;;;8.68;3.15;;;;;;;16.32;46.31;99097.50;5094467;28;20031;-69
2022/04/08 06:52:43;;;;;;;6.40;3.00;;;;;;;16.30;46.58;99095.00;5086726;28;20023;-69
2022/04/08 06:55:10;;;;;;;7.63;2.58;;;;;;;16.41;47.52;99102.53;5094479;28;20051;-70
2022/04/08 06:57:36;;;;;;;10.45;2.35;;;;;;;16.58;44.77;99101.22;5082103;28;20089;-69
2022/04/08 07:00:04;;;;;;;6.75;2.03;;;;;;;16.53;44.85;99095.56;5093688;28;20020;-70
2022/04/08 07:02:29;;;;;;;8.77;2.17;;;;;;;16.94;42.78;99106.31;5095325;28;20176;-70
2022/04/08 07:04:55;;;;;;;5.72;1.45;;;;;;;16.95;42.00;99103.41;5094520;28;20027;-70
2022/04/08 07:07:20;;;;;;;6.57;1.48;;;;;;;16.96;42.89;99101.53;5081391;28;20450;-70
2022/04/08 07:09:46;;;;;;;5.30;1.45;;;;;;;17.07;43.30;99112.59;5094195;28;20046;-78
2022/04/08 07:12:11;;;;;;;16.15;1.33;;;;;;;17.36;39.54;99108.69;5083965;28;20031;-77
2022/04/08 07:14:36;;;;;;;3.97;0.88;;;;;;;17.68;38.48;99107.88;5092672;28;20023;-78
2022/04/08 07:17:02;;;;;;;6.32;0.90;;;;;;;17.81;37.75;99102.44;5088086;28;20018;-69
2022/04/08 07:19:28;;;;;;;3.13;0.80;;;;;;;17.95;36.97;99110.38;5080310;28;20065;-69
2022/04/08 07:21:53;;;;;;;6.22;1.20;;;;;;;17.88;36.14;99084.28;5096225;28;20062;-69
2022/04/08 07:24:19;;;;;;;8.50;1.17;;;;;;;17.96;36.21;99109.31;5094031;28;20522;-70
2022/04/08 07:26:45;;;;;;;6.25;1.08;;;;;;;17.94;36.37;99103.28;5088429;28;20032;-70
2022/04/08 07:29:10;;;;;;;7.80;0.90;;;;;;;18.24;35.03;99119.91;5084978;28;20105;-70
2022/04/08 07:31:36;;;;;;;7.00;0.73;;;;;;;18.47;33.30;99114.84;5091611;28;20081;-70
2022/04/08 07:34:02;;;;;;;6.88;0.98;;;;;;;18.58;33.11;99125.06;5095279;28;20024;-70
2022/04/08 07:36:27;;;;;;;11.90;1.42;;;;;;;18.50;32.80;99113.59;5084190;28;20055;-70
2022/04/08 07:38:53;;;;;;;12.35;1.30;;;;;;;18.59;32.38;99131.31;5089762;28;20082;-70
2022/04/08 07:41:18;;;;;;;9.38;1.10;;;;;;;18.52;32.58;99138.66;5098561;28;20134;-69
2022/04/08 07:43:44;;;;;;;9.90;0.80;;;;;;;18.46;32.96;99142.22;5099191;28;20024;-70
2022/04/08 07:46:09;;;;;;;3.80;0.88;;;;;;;18.58;32.29;99144.06;5099797;28;20038;-70
2022/04/08 07:48:35;;;;;;;6.18;1.45;;;;;;;18.81;30.87;99144.41;5093537;28;20496;-70
2022/04/08 07:51:00;;;;;;;8.65;0.90;;;;;;;18.83;31.30;99146.91;5098481;28;20023;-78
2022/04/08 07:53:26;;;;;;;8.70;1.05;;;;;;;19.07;30.07;99157.84;5098182;28;20077;-78
2022/04/08 07:55:51;;;;;;;5.18;1.10;;;;;;;18.92;30.91;99154.56;5100220;28;20028;-78
2022/04/08 07:58:17;;;;;;;7.18;0.80;;;;;;;18.95;30.87;99177.75;5098413;28;20061;-78
2022/04/08 08:00:42;;;;;;;4.68;0.88;;;;;;;19.13;30.52;99186.03;5098046;28;20020;-78
2022/04/08 08:03:08;;;;;;;7.75;1.10;;;;;;;19.30;30.79;99188.09;5088605;28;20517;-70
2022/04/08 08:05:33;;;;;;;3.70;0.93;;;;;;;19.61;30.66;99198.97;5095230;28;20079;-70
2022/04/08 08:08:01;;;;;;;15.60;1.45;;;;;;;20.22;28.58;99188.25;5078753;28;20058;-70
2022/04/08 08:10:30;;;;;;;19.58;1.58;;;;;;;20.62;27.95;99199.56;5087797;28;20084;-71
2022/04/08 08:12:56;;;;;;;3.90;1.13;;;;;;;20.81;28.62;99214.88;5095789;28;20027;-69
2022/04/08 08:15:23;;;;;;;3.90;1.08;;;;;;;21.31;28.11;99216.41;5099391;28;20081;-70
2022/04/08 08:17:49;;;;;;;5.28;0.80;;;;;;;22.10;27.09;99206.84;5087296;28;20055;-70
2022/04/08 08:20:18;;;;;;;3.38;0.90;;;;;;;23.13;26.69;99207.84;5086513;28;20373;-70
2022/04/08 08:22:43;;;;;;;5.88;1.00;;;;;;;24.72;24.17;99199.22;5101124;28;20024;-70
2022/04/08 08:25:13;;;;;;;5.40;0.77;;;;;;;24.38;24.61;99193.75;5097265;28;20372;-70
2022/04/08 08:27:44;;;;;;;9.70;1.13;;;;;;;24.85;24.15;99196.13;5100042;28;20028;-78
2022/04/08 08:30:11;;;;;;;10.18;1.20;;;;;;;25.41;23.90;99198.53;5097335;28;20062;-78
2022/04/08 08:32:37;;;;;;;9.70;1.15;;;;;;;26.23;22.50;99211.75;5100119;28;20108;-78
2022/04/08 08:35:08;;;;;;;8.40;1.10;;;;;;;25.97;23.07;99201.63;5091872;28;20024;-78
2022/04/08 08:37:35;;;;;;;5.60;1.05;;;;;;;26.53;22.88;99211.13;5100770;28;20105;-78
2022/04/08 08:40:01;;;;;;;5.22;1.30;;;;;;;26.69;22.27;99225.88;5099933;28;20465;-70
2022/04/08 08:42:28;;;;;;;2.72;0.82;;;;;;;26.05;23.07;99249.78;5097488;28;20078;-70
2022/04/08 08:44:54;;;;;;;8.75;0.70;;;;;;;26.24;22.97;99251.88;5089317;28;20094;-78
2022/04/08 08:47:20;;;;;;;7.95;1.02;;;;;;;26.34;23.11;99238.22;5098076;28;20020;-78
2022/04/08 08:49:49;;;;;;;5.05;1.27;;;;;;;27.21;22.60;99255.03;5093227;28;20822;-78
2022/04/08 08:52:17;;;;;;;2.97;1.02;;;;;;;27.75;21.56;99250.91;5088718;28;20027;-77
2022/04/08 08:54:43;;;;;;;5.20;0.98;;;;;;;27.87;21.32;99251.50;5085158;28;20032;-78
2022/04/08 08:57:10;;;;;;;9.40;1.33;;;;;;;27.15;21.19;99269.88;5083249;28;20028;-78
2022/04/08 08:59:37;;;;;;;6.85;0.95;;;;;;;25.99;22.43;99286.53;5082256;28;20130;-78
2022/04/08 09:02:03;;;;;;;11.07;1.08;;;;;;;24.74;23.04;99287.56;5099671;28;20031;-77
2022/04/08 09:04:29;;;;;;;11.38;1.05;;;;;;;23.35;24.45;99287.41;5094088;28;20118;-78
2022/04/08 09:06:55;;;;;;;8.27;1.20;;;;;;;22.49;25.72;99292.78;5096570;28;20031;-78
2022/04/08 09:09:31;;;;;;;6.40;1.00;;;;;;;21.69;26.92;99301.50;5096446;28;20028;-78
2022/04/08 09:12:13;;;;;;;10.32;1.23;;;;;;;21.11;27.88;99298.44;5091284;28;20120;-77
2022/04/08 09:14:38;;;;;;;9.10;1.35;;;;;;;20.70;28.45;99295.47;5099788;28;20387;-78
2022/04/08 09:17:04;;;;;;;5.80;1.20;;;;;;;20.94;28.24;99302.84;5098427;28;20024;-78
2022/04/08 09:19:33;;;;;;;2.90;1.10;;;;;;;20.88;28.64;99313.75;5095530;28;20031;-78
2022/04/08 09:22:00;;;;;;;6.82;0.85;;;;;;;20.49;28.65;99312.25;5096851;28;20464;-78
2022/04/08 09:24:26;;;;;;;2.78;0.70;;;;;;;20.01;29.13;99306.50;5096128;28;20041;-77
2022/04/08 09:26:53;;;;;;;7.88;1.10;;;;;;;19.69;30.15;99320.28;5096156;28;20114;-77
2022/04/08 09:29:23;;;;;;;4.05;0.75;;;;;;;19.46;29.70;99322.72;5075408;28;20090;-77
2022/04/08 09:31:49;;;;;;;4.03;0.77;;;;;;;19.30;29.88;99313.16;5095834;28;20027;-77
2022/04/08 09:34:16;;;;;;;3.03;0.80;;;;;;;19.38;29.84;99317.53;5083129;28;20046;-78
2022/04/08 09:36:42;;;;;;;8.43;0.82;;;;;;;19.36;30.18;99320.47;5093975;28;20068;-77
2022/04/08 09:39:10;;;;;;;5.75;1.25;;;;;;;19.56;29.43;99314.91;5095162;28;20400;-77
2022/04/08 09:41:44;;;;;;;4.88;0.80;;;;;;;19.82;29.51;99320.22;5097600;28;20038;-78
2022/04/08 09:44:11;;;;;;;4.72;0.70;;;;;;;20.01;28.96;99322.00;5095674;28;20055;-77
2022/04/08 09:46:37;;;;;;;7.78;0.98;;;;;;;19.96;28.74;99302.78;5098521;28;20040;-78
2022/04/08 09:49:04;;;;;;;11.73;1.20;;;;;;;19.92;28.96;99312.41;5097754;28;20027;-77
2022/04/08 09:51:38;;;;;;;7.13;0.90;;;;;;;19.62;29.32;99320.34;5082019;28;20023;-78
2022/04/08 09:54:06;;;;;;;4.15;0.90;;;;;;;19.51;29.65;99321.00;5096482;28;20451;-78
2022/04/08 09:56:34;;;;;;;3.97;1.00;;;;;;;19.54;29.63;99303.44;5098666;28;20089;-77
2022/04/08 09:59:13;;;;;;;3.80;0.70;;;;;;;19.69;29.32;99307.53;5099545;28;20818;-78
2022/04/08 10:01:40;;;;;;;9.32;0.88;;;;;;;19.53;29.07;99323.50;5100219;28;20055;-78
2022/04/08 10:04:08;;;;;;;4.30;0.95;;;;;;;19.70;29.00;99302.94;5083473;28;20090;-78
2022/04/08 10:06:35;;;;;;;2.75;0.77;;;;;;;19.55;29.61;99311.38;5098834;28;20024;-77
2022/04/08 10:09:01;;;;;;;1.95;0.80;;;;;;;19.65;28.89;99305.47;5095182;28;20020;-77
2022/04/08 10:11:45;;;;;;;4.57;0.95;;;;;;;19.53;29.59;99309.91;5097175;28;20480;-77
2022/04/08 10:14:28;;;;;;;6.22;1.05;;;;;;;19.67;29.16;99301.47;5100209;28;20024;-77
2022/04/08 10:16:55;;;;;;;8.02;0.98;;;;;;;19.78;29.33;99302.66;5094424;28;20129;-77
2022/04/08 10:19:23;;;;;;;4.35;0.80;;;;;;;19.71;29.26;99307.31;5083504;28;20077;-78
2022/04/08 10:21:54;;;;;;;5.15;0.93;;;;;;;19.88;29.42;99314.75;5097229;28;20023;-78
2022/04/08 10:24:27;;;;;;;4.90;0.82;;;;;;;19.78;29.24;99306.25;5096926;28;20031;-78
2022/04/08 10:27:09;;;;;;;5.55;0.82;;;;;;;19.53;29.64;99313.47;5097198;28;20484;-78
2022/04/08 10:29:35;;;;;;;4.57;0.98;;;;;;;19.47;29.88;99295.28;5094501;28;20057;-78
2022/04/08 10:32:23;;;;;;;4.20;1.20;;;;;;;19.51;29.88;99304.69;5088155;28;20070;-78
2022/04/08 10:34:49;;;;;;;2.33;0.82;;;;;;;19.38;30.00;99299.31;5092293;28;20048;-78
2022/04/08 10:37:21;;;;;;;2.95;1.00;;;;;;;19.24;30.53;99291.38;5092371;28;20392;-78
2022/04/08 10:39:57;;;;;;;2.65;0.95;;;;;;;19.25;30.63;99302.03;5091655;28;20504;-69
2022/04/08 10:42:23;;;;;;;4.38;1.02;;;;;;;19.51;30.18;99303.88;5081063;28;20078;-69
2022/04/08 10:44:48;;;;;;;3.47;1.00;;;;;;;19.45;30.43;99291.94;5080870;28;20476;-69
2022/04/08 10:47:21;;;;;;;4.40;0.80;;;;;;;19.48;30.17;99274.38;5095520;28;20536;-69
2022/04/08 10:50:04;;;;;;;5.82;1.48;;;;;;;19.67;30.62;99287.06;5094952;28;20111;-69
2022/04/08 10:52:31;;;;;;;6.57;1.05;;;;;;;19.73;30.83;99284.28;5100110;28;20110;-70
2022/04/08 10:55:07;;;;;;;4.50;1.38;;;;;;;19.77;30.59;99277.34;5097780;28;20539;-69
2022/04/08 10:57:38;;;;;;;4.43;1.13;;;;;;;19.73;31.00;99283.44;5091644;28;20064;-69
2022/04/08 11:00:17;;;;;;;2.90;0.75;;;;;;;19.79;30.72;99290.72;5076145;28;20038;-69
2022/04/08 11:02:47;;;;;;;6.10;1.27;;;;;;;19.90;30.27;99296.31;5082821;28;20035;-69
2022/04/08 11:05:14;;;;;;;7.13;1.17;;;;;;;19.78;30.55;99283.63;5096068;28;20496;-78
2022/04/08 11:07:45;;;;;;;3.55;1.35;;;;;;;19.78;30.84;99289.91;5096382;28;20494;-78
2022/04/08 11:10:15;;;;;;;7.57;1.50;;;;;;;19.94;30.67;99292.13;5079530;28;20605;-78
2022/04/08 11:12:51;;;;;;;1.75;1.00;;;;;;;19.87;30.36;99295.94;5102127;28;20045;-78
2022/04/08 11:15:25;;;;;;;8.07;1.27;;;;;;;19.62;30.49;99286.84;5094677;28;20519;-78
2022/04/08 11:17:51;;;;;;;5.18;1.15;;;;;;;19.49;30.60;99290.50;5091918;28;20028;-77
2022/04/08 11:20:21;;;;;;;3.42;0.88;;;;;;;19.46;30.82;99301.78;5089148;28;20036;-78
2022/04/08 11:22:52;;;;;;;4.32;0.90;;;;;;;19.39;30.66;99303.72;5094457;28;20279;-77
2022/04/08 11:25:24;;;;;;;3.75;0.70;;;;;;;19.16;30.87;99314.22;5091727;28;20024;-77